Main page
METAR-TAF:

METAR-TAF

Airports :

Koksijde Air Base

Koksijde, Belgium

latitude: 51-05N, longitude: 002-39E, elevation: 4 m

Current weather observation

The report was made 30 minutes ago, at 17:55 UTC
Wind 7 kt from the South/Southeast
Temperature 3°C
Humidity 100%
Pressure 1019 hPa
Visibility: 0200 m
fog

METAR: EBFN 251755Z AUTO 15007KT 0200 FG OVC002/// 03/03 Q1019 RED

Time: 19:25 (18:25 UTC)

Forecast

The report was made 6 hours and 44 minutes ago, at 11:41 UTC
Forecast valid from 25 at 13 UTC to 25 at 22 UTC
Wind 7 kt from the South/Southeast
Visibility: 1000 m
Broken clouds at a height of 300 ft
mist
Temporary
from 25 at 13 UTC to 25 at 22 UTC
Visibility: 0500 m
Overcast at a height of 200 ft
fog
Probability 40% :
Temporary
from 25 at 13 UTC to 25 at 16 UTC
Visibility: 3000 m
Broken clouds at a height of 600 ft
mist

TAF: EBFN 251141Z 2513/2522 16007KT 1000 BR BKN003 TEMPO 2513/2522 0500 FG OVC002 PROB40 TEMPO 2513/2516 3000 BR BKN006

Weather observations and forecasts of more than 4000 airports (METAR and TAF reports).

The available stations are represented by yellow and red dots on the map.

Hover mouse over dot to see the name of the station.

Then click to see weather observations and forecasts.

To change the map : click on the green buttons with a black cross to zoom in, on the green button with a dash to zoom out, or on the green arrows for adjacent maps.


METAR-TAF: